Skip to main content

NOAA/GLERL Met Station at Chicago, IL

Previous 3 Hours (2 minute increments)
See also Previous 5 Days (top of hour)
Jump down to Data
Switch to [English][Metric]
Zoom: Click and drag, Pan: shift-click and drag, Unzoom: double-click, Unzoom All




See also 1-day windrose plot


NOAA/GLERL Met Station at Chicago, IL

Previous 3 Hours (2 minute increments)
See also Previous 5 Days (top of hour only)
Jump up to Graphs
Switch to [English][Metric]
                  Wind  Wind  Wind   Air   Dew   Rel
                   Spd   Gst   Dir  Temp    Pt   Hum
YYYY-MM-DD   CST   m/s   m/s   deg     C     C     %
2019-11-21 16:36  10.0  12.3   261   9.3   7.2  86.6
2019-11-21 16:34  11.1  12.1   267   9.2   7.1  86.5
2019-11-21 16:32  10.5  12.8   271   9.2   7.1  86.7
2019-11-21 16:30  12.0  13.8   265   9.5   7.2  85.6
2019-11-21 16:28  12.6  14.6   266   9.5   7.2  85.6
2019-11-21 16:26  12.0  14.2   262   9.4   7.2  86.0
2019-11-21 16:24  10.6  11.9   265   9.4   7.3  86.5
2019-11-21 16:22  10.2  11.9   270   9.5   7.4  86.6
2019-11-21 16:20  10.2  12.6   269   9.5   7.4  86.4
2019-11-21 16:18  10.8  12.6   271   9.5   7.5  87.5
2019-11-21 16:16  11.4  12.9   268   9.6   7.6  87.0
2019-11-21 16:14  12.3  13.3   265   9.5   7.5  87.3
2019-11-21 16:12  10.7  12.8   263   9.4   7.4  87.5
2019-11-21 16:10  11.5  12.7   267   9.5   7.6  87.6
2019-11-21 16:08  11.7  13.2   264   9.4   7.5  87.6
2019-11-21 16:06  12.5  14.0   264   9.6   7.6  87.2
2019-11-21 16:04  11.3  13.5   264   9.4   7.5  87.9
2019-11-21 16:02  10.9  12.5   268   9.4   7.5  87.9
2019-11-21 16:00  11.7  13.6   269   9.7   7.6  86.7
2019-11-21 15:58  13.0  15.0   261   9.9   7.7  85.9
2019-11-21 15:56  14.5  16.4   260   9.8   7.7  86.5
2019-11-21 15:54  13.0  14.4   260   9.8   7.7  86.5
2019-11-21 15:52  13.4  15.7   260   9.9   7.8  86.4
2019-11-21 15:50  14.1  16.1   261   9.9   7.9  87.0
2019-11-21 15:48  10.9  13.9   264   9.7   7.8  88.0
2019-11-21 15:46  12.0  14.5   267  10.1   7.9  86.3
2019-11-21 15:44  13.3  14.2   264  10.1   8.0  86.7
2019-11-21 15:42  14.5  15.8   270  10.0   8.0  87.0
2019-11-21 15:40  13.7  15.4   267  10.1   8.0  86.5
2019-11-21 15:38  15.3  17.9   262  10.2   8.1  86.9
2019-11-21 15:36  14.4  17.1   261  10.1   8.1  87.5
2019-11-21 15:34  12.6  14.3   261  10.3   8.4  87.8
2019-11-21 15:32  13.1  15.0   258  10.3   8.5  88.2
2019-11-21 15:30  12.3  14.8   257  10.2   8.5  88.9
2019-11-21 15:28  12.3  14.4   256  10.3   8.6  89.0
2019-11-21 15:26  12.6  15.2   256  10.4   8.6  88.4
2019-11-21 15:24  13.4  14.7   253  10.5   8.7  88.5
2019-11-21 15:22  12.1  14.4   250  10.4   8.6  88.8
2019-11-21 15:20  12.7  15.7   248  10.5   8.6  88.2
2019-11-21 15:18  12.6  15.0   248  10.8   8.7  86.8
2019-11-21 15:16  11.3  12.4   254  10.9   8.6  85.8
2019-11-21 15:14  11.7  13.3   263  10.7   8.6  86.6
2019-11-21 15:12  11.2  14.1   263  11.1   8.6  84.4
2019-11-21 15:10  13.4  15.1   259  11.3   8.7  84.1
2019-11-21 15:08  13.8  16.3   261  11.2   8.7  84.4
2019-11-21 15:06  11.8  13.2   265  11.1   8.6  84.3
2019-11-21 15:04  13.2  14.9   268  11.1   8.5  84.1
2019-11-21 15:02  12.9  13.9   264  11.2   8.6  83.7
2019-11-21 15:00  12.8  14.1   266  11.2   8.6  83.8
2019-11-21 14:58  13.8  15.3   268  11.2   8.6  83.8
2019-11-21 14:56  13.2  14.3   266  11.2   8.6  83.9
2019-11-21 14:54  14.6  16.6   263  11.3   8.6  83.5
2019-11-21 14:52  13.4  16.2   261  11.3   8.6  83.3
2019-11-21 14:50  13.4  15.1   260  11.4   8.6  82.8
2019-11-21 14:48  15.2  17.0   264  11.6   8.7  82.1
2019-11-21 14:46  14.2  16.8   261  11.5   8.6  82.4
2019-11-21 14:44  13.7  15.9   262  11.4   8.6  82.6
2019-11-21 14:42  15.0  17.5   268  11.6   8.6  81.7
2019-11-21 14:40  16.1  19.5   265  11.4   8.6  82.8
2019-11-21 14:38  16.6  18.5   256  11.4   8.7  83.4
2019-11-21 14:36  14.8  17.1   258  11.2   8.7  84.7
2019-11-21 14:34  13.0  15.1   261  11.3   8.7  83.8
2019-11-21 14:32  14.5  16.9   267  11.5   8.8  83.3
2019-11-21 14:30  14.9  18.0   264  11.4   8.7  83.5
2019-11-21 14:28  14.2  16.4   263  11.2   8.7  84.7
2019-11-21 14:26  15.0  18.3   265  11.4   8.8  84.1
2019-11-21 14:24  14.7  16.3   263  11.4   9.0  85.2
2019-11-21 14:22  13.9  16.6   266  11.4   9.0  84.9
2019-11-21 14:20  14.3  16.5   267  11.5   9.1  84.9
2019-11-21 14:18  15.3  17.8   266  11.6   9.0  84.1
2019-11-21 14:16  14.9  16.8   261  11.6   9.0  84.1
2019-11-21 14:14  17.9  20.9   262  11.7   9.0  83.4
2019-11-21 14:12  17.1  21.2   260  11.7   9.0  83.2
2019-11-21 14:10  17.0  21.6   261  11.7   9.1  84.2
2019-11-21 14:08  14.8  16.6   256  11.7   9.1  84.2
2019-11-21 14:06  15.6  18.8   256  11.8   9.2  84.2
2019-11-21 14:04  18.3  21.4   262  11.9   9.3  83.8
2019-11-21 14:02  17.2  20.2   258  11.9   9.2  83.6
2019-11-21 14:00  16.1  21.3   256  11.7   9.2  84.4
2019-11-21 13:58  17.0  20.1   259  11.9   9.2  83.2
2019-11-21 13:56  17.3  21.5   256  12.1   9.3  82.8
2019-11-21 13:54  18.9  21.6   254  12.2   9.4  82.9
2019-11-21 13:52  17.7  21.2   263  12.0   9.5  84.4
2019-11-21 13:50  17.4  20.1   268  12.2   9.6  83.8
2019-11-21 13:48  16.5  19.1   261  12.3   9.9  85.2
2019-11-21 13:46  14.6  18.8   265  12.5  10.3  86.5
2019-11-21 13:44  14.2  15.8   260  12.6  10.6  87.4
2019-11-21 13:42  13.9  15.8   250  12.7  10.5  86.6
2019-11-21 13:40  16.1  18.4   252  12.9  10.6  85.8
2019-11-21 13:38  16.1  19.4   244  12.9  10.7  86.1
2019-11-21 13:36  16.0  18.7   253  13.1  10.9  86.5